Terminal Aerodrome Forecast
Issued by NWS

Home | Current Version | Previous Version | Text Only | Print | Product List | Glossary On
Versions: 1 2 3 4 5 6 7 8 9 10 11 12 13 14 15 16 17 18 19 20 21 22 23 24 25
000
FTUS46 KSEW 012000 AAA
TAFBFI
TAF AMD
KBFI 012000Z 0120/0218 20008KT 5SM -RA BR OVC025
      TEMPO 0120/0124 2SM -RA BR BKN012 OVC023
     FM020000 20008KT P6SM BKN023 OVC040
     FM021000 18006KT P6SM OVC018=

USA.gov is the U.S. government's official web portal to all federal, state and local government web resources and services.